Ganasa — EA8999 — position and weather

sailwx.info

Track history (hours):
 
Tides and Currents Weather Stations Pressure Air Temp Water Temp Dewpoint Dewpoint Depression Visibility Wind Speed Wind Dir Waves Ship Positions

Ganasa

Last reported at 2018-Jul-19 13:56 UTC. Time now 2018-Jul-19 15:09 UTC.
Position N 38°55' E 001°26'.

Length 20 m.

Type: Fishing. MMSI: 224071880.

Date/timePositionNaut miles runAvg speedWind from/ knotsBaromVisibWave heightAir tempDewpointWater temp
2018-Jul-19 13:56N 38°55' E 001°26'0 0.0
2018-Jul-19 13:27N 38°55' E 001°26'0 0.0
2018-Jul-19 12:34N 38°55' E 001°26'1 1.6
2018-Jul-19 12:10N 38°54' E 001°27'2 7.8
2018-Jul-19 11:59N 38°53' E 001°25'5 0.5
2018-Jul-19 02:56N 38°48' E 001°25'4 8.4
2018-Jul-19 02:29N 38°52' E 001°26'3 0.2
2018-Jul-18 12:59N 38°55' E 001°26'0 0.5
2018-Jul-18 12:30N 38°55' E 001°26'5 0.5
2018-Jul-18 02:44N 38°50' E 001°26'2 8.5
2018-Jul-18 02:30N 38°52' E 001°26'3 0.2
2018-Jul-17 12:34N 38°55' E 001°26'0 0.0
2018-Jul-17 12:20N 38°55' E 001°26'0 0.0
2018-Jul-17 11:58N 38°55' E 001°26'0 0.0
2018-Jul-17 11:29N 38°55' E 001°26'3 5.3
2018-Jul-17 10:55N 38°54' E 001°30'4 9.2
2018-Jul-17 10:30N 38°55' E 001°35'3 4.5
2018-Jul-17 09:56N 38°56' E 001°38'1 2.1
2018-Jul-17 09:26N 38°57' E 001°38'2 0.3
2018-Jul-17 04:01N 38°59' E 001°38'1 2.6
2018-Jul-17 03:47N 38°58' E 001°38'1 3.1
2018-Jul-17 03:30N 38°57' E 001°38'4 7.8
2018-Jul-17 02:59N 38°56' E 001°33'5 8.7
2018-Jul-17 02:26N 38°54' E 001°27'  
2018-Jul-13 10:47N 38°55' E 001°26'0 0.0
2018-Jul-13 10:30N 38°55' E 001°26'0 0.0
2018-Jul-13 10:00N 38°55' E 001°26'0 0.0
2018-Jul-13 09:27N 38°55' E 001°26'0 0.0
2018-Jul-13 08:58N 38°55' E 001°26'1 2.1
2018-Jul-13 08:29N 38°54' E 001°27'4 8.7
2018-Jul-13 08:00N 38°56' E 001°32'4 8.5
2018-Jul-13 07:30N 38°58' E 001°36'1 0.2
2018-Jul-13 03:33N 38°58' E 001°38'0 3.9
2018-Jul-13 03:30N 38°58' E 001°38'4 8.1
2018-Jul-13 03:00N 38°56' E 001°33'5 8.8
2018-Jul-13 02:28N 38°54' E 001°28'1 0.1
2018-Jul-12 11:55N 38°55' E 001°26'0 0.0
2018-Jul-12 11:12N 38°55' E 001°26'2 3.8
2018-Jul-12 10:47N 38°54' E 001°28'2 8.7
2018-Jul-12 10:30N 38°54' E 001°31'4 8.3
2018-Jul-12 09:58N 38°55' E 001°37'1 1.7
2018-Jul-12 09:16N 38°56' E 001°38'1 2.4
2018-Jul-12 08:58N 38°57' E 001°38'1 2.3
2018-Jul-12 08:30N 38°58' E 001°38'1 2.3
2018-Jul-12 07:57N 38°59' E 001°38'0 0.0
2018-Jul-12 03:34N 38°59' E 001°38'0 3.5
2018-Jul-12 03:27N 38°59' E 001°38'4 8.1
2018-Jul-12 03:00N 38°56' E 001°34'4 8.4
2018-Jul-12 02:30N 38°54' E 001°29'2 4.3
2018-Jul-12 01:56N 38°55' E 001°26'0 0.0
2018-Jul-12 01:28N 38°55' E 001°26'0 0.0
2018-Jul-12 00:59N 38°55' E 001°26'0 0.0
2018-Jul-12 00:27N 38°55' E 001°26'0 0.0
2018-Jul-11 23:59N 38°55' E 001°26'0 0.0
2018-Jul-11 23:27N 38°55' E 001°26'0 0.0
2018-Jul-11 22:58N 38°55' E 001°26'0 0.0
2018-Jul-11 22:28N 38°55' E 001°26'0 0.0
2018-Jul-11 21:57N 38°55' E 001°26'0 0.0
2018-Jul-11 21:28N 38°55' E 001°26'0 0.0
2018-Jul-11 20:57N 38°55' E 001°26'0 0.0
2018-Jul-11 20:22N 38°55' E 001°26'0 0.0
2018-Jul-11 19:59N 38°55' E 001°26'0 0.0
2018-Jul-11 19:29N 38°55' E 001°26'0 0.0
2018-Jul-11 19:00N 38°55' E 001°26'0 0.0
2018-Jul-11 18:29N 38°55' E 001°26'0 0.0
2018-Jul-11 17:57N 38°55' E 001°26'0 0.0
2018-Jul-11 17:24N 38°55' E 001°26'0 0.0
2018-Jul-11 16:35N 38°55' E 001°26'0 0.0
2018-Jul-11 16:30N 38°55' E 001°26'0 0.0
2018-Jul-11 16:00N 38°55' E 001°26'0 0.0
2018-Jul-11 15:26N 38°55' E 001°26'0 0.0
2018-Jul-11 15:00N 38°55' E 001°26'0 0.0
2018-Jul-11 14:30N 38°55' E 001°26'0 0.0
2018-Jul-11 14:00N 38°55' E 001°26'0 0.0
2018-Jul-11 13:26N 38°55' E 001°26'0 0.0
2018-Jul-11 13:00N 38°55' E 001°26'3 5.3
2018-Jul-11 12:27N 38°52' E 001°26'2 0.2
2018-Jul-11 02:41N 38°50' E 001°26'3 8.8
2018-Jul-11 02:23N 38°52' E 001°26'2 5.4
2018-Jul-11 01:55N 38°55' E 001°26'0 0.0
2018-Jul-11 01:30N 38°55' E 001°26'0 0.0
2018-Jul-11 00:56N 38°55' E 001°26'0 0.0
2018-Jul-11 00:28N 38°55' E 001°26'0 0.0
2018-Jul-10 23:59N 38°55' E 001°26'0 0.0
2018-Jul-10 23:29N 38°55' E 001°26'0 0.0
2018-Jul-10 22:54N 38°55' E 001°26'0 0.0
2018-Jul-10 22:30N 38°55' E 001°26'0 0.0
2018-Jul-10 21:40N 38°55' E 001°26'0 0.0
2018-Jul-10 21:30N 38°55' E 001°26'0 0.0
2018-Jul-10 20:56N 38°55' E 001°26'0 0.0
2018-Jul-10 20:19N 38°55' E 001°26'0 0.0
2018-Jul-10 19:52N 38°55' E 001°26'0 0.0
2018-Jul-10 19:26N 38°55' E 001°26'2 0.2
2018-Jul-10 10:03N 38°54' E 001°29'1 8.1
2018-Jul-10 09:56N 38°54' E 001°30'3 6.8
2018-Jul-10 09:28N 38°56' E 001°34'1 1.2
2018-Jul-10 09:00N 38°56' E 001°34'1 2.3
2018-Jul-10 08:26N 38°55' E 001°36'1 2.2
2018-Jul-10 07:59N 38°55' E 001°37'1 2.0
2018-Jul-10 07:20N 38°56' E 001°38'1 2.3
2018-Jul-10 06:53N 38°57' E 001°37'1 2.1
2018-Jul-10 06:30N 38°57' E 001°36'1 1.3
2018-Jul-10 05:59N 38°56' E 001°36'2 1.4
2018-Jul-10 04:52N 38°56' E 001°38'1 2.4
2018-Jul-10 04:28N 38°57' E 001°38'1 2.4
2018-Jul-10 04:00N 38°58' E 001°38'1 1.6
2018-Jul-10 03:28N 38°59' E 001°37'4 8.7
2018-Jul-10 03:01N 38°56' E 001°34'5 8.8
2018-Jul-10 02:29N 38°54' E 001°28'  
Track history (hours):
 
Tides and Currents Weather Stations Pressure Air Temp Water Temp Dewpoint Dewpoint Depression Visibility Wind Speed Wind Dir Waves Ship Positions

Ganasa

Last reported at 2018-Jul-19 13:56 UTC. Time now 2018-Jul-19 15:09 UTC.
Position N 38°55' E 001°26'.

Length 20 m.

Type: Fishing. MMSI: 224071880.

Date/timePositionNaut miles runAvg speedWind from/ knotsBaromVisibWave heightAir tempDewpointWater temp
2018-Jul-19 13:56N 38°55' E 001°26'0 0.0
2018-Jul-19 13:27N 38°55' E 001°26'0 0.0
2018-Jul-19 12:34N 38°55' E 001°26'1 1.6
2018-Jul-19 12:10N 38°54' E 001°27'2 7.8
2018-Jul-19 11:59N 38°53' E 001°25'5 0.5
2018-Jul-19 02:56N 38°48' E 001°25'4 8.4
2018-Jul-19 02:29N 38°52' E 001°26'3 0.2
2018-Jul-18 12:59N 38°55' E 001°26'0 0.5
2018-Jul-18 12:30N 38°55' E 001°26'5 0.5
2018-Jul-18 02:44N 38°50' E 001°26'2 8.5
2018-Jul-18 02:30N 38°52' E 001°26'3 0.2
2018-Jul-17 12:34N 38°55' E 001°26'0 0.0
2018-Jul-17 12:20N 38°55' E 001°26'0 0.0
2018-Jul-17 11:58N 38°55' E 001°26'0 0.0
2018-Jul-17 11:29N 38°55' E 001°26'3 5.3
2018-Jul-17 10:55N 38°54' E 001°30'4 9.2
2018-Jul-17 10:30N 38°55' E 001°35'3 4.5
2018-Jul-17 09:56N 38°56' E 001°38'1 2.1
2018-Jul-17 09:26N 38°57' E 001°38'2 0.3
2018-Jul-17 04:01N 38°59' E 001°38'1 2.6
2018-Jul-17 03:47N 38°58' E 001°38'1 3.1
2018-Jul-17 03:30N 38°57' E 001°38'4 7.8
2018-Jul-17 02:59N 38°56' E 001°33'5 8.7
2018-Jul-17 02:26N 38°54' E 001°27'  
2018-Jul-13 10:47N 38°55' E 001°26'0 0.0
2018-Jul-13 10:30N 38°55' E 001°26'0 0.0
2018-Jul-13 10:00N 38°55' E 001°26'0 0.0
2018-Jul-13 09:27N 38°55' E 001°26'0 0.0
2018-Jul-13 08:58N 38°55' E 001°26'1 2.1
2018-Jul-13 08:29N 38°54' E 001°27'4 8.7
2018-Jul-13 08:00N 38°56' E 001°32'4 8.5
2018-Jul-13 07:30N 38°58' E 001°36'1 0.2
2018-Jul-13 03:33N 38°58' E 001°38'0 3.9
2018-Jul-13 03:30N 38°58' E 001°38'4 8.1
2018-Jul-13 03:00N 38°56' E 001°33'5 8.8
2018-Jul-13 02:28N 38°54' E 001°28'1 0.1
2018-Jul-12 11:55N 38°55' E 001°26'0 0.0
2018-Jul-12 11:12N 38°55' E 001°26'2 3.8
2018-Jul-12 10:47N 38°54' E 001°28'2 8.7
2018-Jul-12 10:30N 38°54' E 001°31'4 8.3
2018-Jul-12 09:58N 38°55' E 001°37'1 1.7
2018-Jul-12 09:16N 38°56' E 001°38'1 2.4
2018-Jul-12 08:58N 38°57' E 001°38'1 2.3
2018-Jul-12 08:30N 38°58' E 001°38'1 2.3
2018-Jul-12 07:57N 38°59' E 001°38'0 0.0
2018-Jul-12 03:34N 38°59' E 001°38'0 3.5
2018-Jul-12 03:27N 38°59' E 001°38'4 8.1
2018-Jul-12 03:00N 38°56' E 001°34'4 8.4
2018-Jul-12 02:30N 38°54' E 001°29'2 4.3
2018-Jul-12 01:56N 38°55' E 001°26'0 0.0
2018-Jul-12 01:28N 38°55' E 001°26'0 0.0
2018-Jul-12 00:59N 38°55' E 001°26'0 0.0
2018-Jul-12 00:27N 38°55' E 001°26'0 0.0
2018-Jul-11 23:59N 38°55' E 001°26'0 0.0
2018-Jul-11 23:27N 38°55' E 001°26'0 0.0
2018-Jul-11 22:58N 38°55' E 001°26'0 0.0
2018-Jul-11 22:28N 38°55' E 001°26'0 0.0
2018-Jul-11 21:57N 38°55' E 001°26'0 0.0
2018-Jul-11 21:28N 38°55' E 001°26'0 0.0
2018-Jul-11 20:57N 38°55' E 001°26'0 0.0
2018-Jul-11 20:22N 38°55' E 001°26'0 0.0
2018-Jul-11 19:59N 38°55' E 001°26'0 0.0
2018-Jul-11 19:29N 38°55' E 001°26'0 0.0
2018-Jul-11 19:00N 38°55' E 001°26'0 0.0
2018-Jul-11 18:29N 38°55' E 001°26'0 0.0
2018-Jul-11 17:57N 38°55' E 001°26'0 0.0
2018-Jul-11 17:24N 38°55' E 001°26'0 0.0
2018-Jul-11 16:35N 38°55' E 001°26'0 0.0
2018-Jul-11 16:30N 38°55' E 001°26'0 0.0
2018-Jul-11 16:00N 38°55' E 001°26'0 0.0
2018-Jul-11 15:26N 38°55' E 001°26'0 0.0
2018-Jul-11 15:00N 38°55' E 001°26'0 0.0
2018-Jul-11 14:30N 38°55' E 001°26'0 0.0
2018-Jul-11 14:00N 38°55' E 001°26'0 0.0
2018-Jul-11 13:26N 38°55' E 001°26'0 0.0
2018-Jul-11 13:00N 38°55' E 001°26'3 5.3
2018-Jul-11 12:27N 38°52' E 001°26'2 0.2
2018-Jul-11 02:41N 38°50' E 001°26'3 8.8
2018-Jul-11 02:23N 38°52' E 001°26'2 5.4
2018-Jul-11 01:55N 38°55' E 001°26'0 0.0
2018-Jul-11 01:30N 38°55' E 001°26'0 0.0
2018-Jul-11 00:56N 38°55' E 001°26'0 0.0
2018-Jul-11 00:28N 38°55' E 001°26'0 0.0
2018-Jul-10 23:59N 38°55' E 001°26'0 0.0
2018-Jul-10 23:29N 38°55' E 001°26'0 0.0
2018-Jul-10 22:54N 38°55' E 001°26'0 0.0
2018-Jul-10 22:30N 38°55' E 001°26'0 0.0
2018-Jul-10 21:40N 38°55' E 001°26'0 0.0
2018-Jul-10 21:30N 38°55' E 001°26'0 0.0
2018-Jul-10 20:56N 38°55' E 001°26'0 0.0
2018-Jul-10 20:19N 38°55' E 001°26'0 0.0
2018-Jul-10 19:52N 38°55' E 001°26'0 0.0
2018-Jul-10 19:26N 38°55' E 001°26'2 0.2
2018-Jul-10 10:03N 38°54' E 001°29'1 8.1
2018-Jul-10 09:56N 38°54' E 001°30'3 6.8
2018-Jul-10 09:28N 38°56' E 001°34'1 1.2
2018-Jul-10 09:00N 38°56' E 001°34'1 2.3
2018-Jul-10 08:26N 38°55' E 001°36'1 2.2
2018-Jul-10 07:59N 38°55' E 001°37'1 2.0
2018-Jul-10 07:20N 38°56' E 001°38'1 2.3
2018-Jul-10 06:53N 38°57' E 001°37'1 2.1
2018-Jul-10 06:30N 38°57' E 001°36'1 1.3
2018-Jul-10 05:59N 38°56' E 001°36'2 1.4
2018-Jul-10 04:52N 38°56' E 001°38'1 2.4
2018-Jul-10 04:28N 38°57' E 001°38'1 2.4
2018-Jul-10 04:00N 38°58' E 001°38'1 1.6
2018-Jul-10 03:28N 38°59' E 001°37'4 8.7
2018-Jul-10 03:01N 38°56' E 001°34'5 8.8
2018-Jul-10 02:29N 38°54' E 001°28'  

Dump ship's entire track history